sensor_id;sensor_type;location;lat;lon;timestamp;pressure;altitude;pressure_sealevel;temperature
60003;BMP280;46322;52.018;8.702;2022-11-20T00:01:54;99916.66;;;0.68
60003;BMP280;46322;52.018;8.702;2022-11-20T00:06:55;99916.94;;;0.67
60003;BMP280;46322;52.018;8.702;2022-11-20T00:11:55;99922.09;;;1.72
60003;BMP280;46322;52.018;8.702;2022-11-20T00:16:55;99913.06;;;1.22
60003;BMP280;46322;52.018;8.702;2022-11-20T00:21:55;99909.50;;;0.48
60003;BMP280;46322;52.018;8.702;2022-11-20T00:26:55;99903.38;;;1.12
60003;BMP280;46322;52.018;8.702;2022-11-20T00:31:55;99908.59;;;0.01
60003;BMP280;46322;52.018;8.702;2022-11-20T00:36:55;99892.00;;;0.86
60003;BMP280;46322;52.018;8.702;2022-11-20T00:41:56;99894.88;;;0.85
60003;BMP280;46322;52.018;8.702;2022-11-20T00:46:56;99891.94;;;1.23
60003;BMP280;46322;52.018;8.702;2022-11-20T00:51:56;99891.94;;;0.39
60003;BMP280;46322;52.018;8.702;2022-11-20T00:56:56;99887.81;;;0.43
60003;BMP280;46322;52.018;8.702;2022-11-20T01:01:56;99900.75;;;0.65
60003;BMP280;46322;52.018;8.702;2022-11-20T01:06:56;99897.09;;;0.66
60003;BMP280;46322;52.018;8.702;2022-11-20T01:11:56;99896.31;;;0.28
60003;BMP280;46322;52.018;8.702;2022-11-20T01:16:57;99903.63;;;0.68
60003;BMP280;46322;52.018;8.702;2022-11-20T01:21:57;99891.66;;;-0.29
60003;BMP280;46322;52.018;8.702;2022-11-20T01:26:57;99903.19;;;0.07
60003;BMP280;46322;52.018;8.702;2022-11-20T01:31:57;99891.84;;;-0.09
60003;BMP280;46322;52.018;8.702;2022-11-20T01:36:57;99879.72;;;-1.29
60003;BMP280;46322;52.018;8.702;2022-11-20T01:41:57;99878.66;;;0.03
60003;BMP280;46322;52.018;8.702;2022-11-20T01:46:58;99879.28;;;-0.39
60003;BMP280;46322;52.018;8.702;2022-11-20T01:52:05;99868.06;;;0.94
60003;BMP280;46322;52.018;8.702;2022-11-20T01:57:07;99871.88;;;0.81
60003;BMP280;46322;52.018;8.702;2022-11-20T02:02:09;99874.69;;;0.33
60003;BMP280;46322;52.018;8.702;2022-11-20T02:07:09;99869.56;;;0.43
60003;BMP280;46322;52.018;8.702;2022-11-20T02:12:10;99858.06;;;0.02
60003;BMP280;46322;52.018;8.702;2022-11-20T02:17:10;99857.41;;;0.16
60003;BMP280;46322;52.018;8.702;2022-11-20T02:22:12;99859.34;;;-0.01
60003;BMP280;46322;52.018;8.702;2022-11-20T02:27:14;99847.47;;;0.13
60003;BMP280;46322;52.018;8.702;2022-11-20T02:32:19;99849.06;;;0.14
60003;BMP280;46322;52.018;8.702;2022-11-20T02:37:19;99835.31;;;0.24
60003;BMP280;46322;52.018;8.702;2022-11-20T02:42:20;99838.44;;;-0.06
60003;BMP280;46322;52.018;8.702;2022-11-20T02:47:20;99833.72;;;-0.36
60003;BMP280;46322;52.018;8.702;2022-11-20T02:52:20;99831.72;;;-0.02
60003;BMP280;46322;52.018;8.702;2022-11-20T02:57:20;99826.72;;;0.29
60003;BMP280;46322;52.018;8.702;2022-11-20T03:02:20;99825.91;;;0.23
60003;BMP280;46322;52.018;8.702;2022-11-20T03:07:21;99811.72;;;-0.29
60003;BMP280;46322;52.018;8.702;2022-11-20T03:12:21;99815.63;;;-0.26
60003;BMP280;46322;52.018;8.702;2022-11-20T03:17:21;99802.97;;;-0.39
60003;BMP280;46322;52.018;8.702;2022-11-20T03:22:21;99803.38;;;-0.52
60003;BMP280;46322;52.018;8.702;2022-11-20T03:27:21;99793.81;;;-0.20
60003;BMP280;46322;52.018;8.702;2022-11-20T03:32:21;99802.41;;;0.13
60003;BMP280;46322;52.018;8.702;2022-11-20T03:37:22;99806.56;;;0.14
60003;BMP280;46322;52.018;8.702;2022-11-20T03:42:22;99801.22;;;-0.34
60003;BMP280;46322;52.018;8.702;2022-11-20T03:47:22;99799.00;;;-0.47
60003;BMP280;46322;52.018;8.702;2022-11-20T03:52:22;99794.56;;;-0.73
60003;BMP280;46322;52.018;8.702;2022-11-20T03:57:22;99782.13;;;-0.12
60003;BMP280;46322;52.018;8.702;2022-11-20T04:02:22;99794.19;;;-0.01
60003;BMP280;46322;52.018;8.702;2022-11-20T04:07:23;99804.22;;;-0.47
60003;BMP280;46322;52.018;8.702;2022-11-20T04:12:23;99803.19;;;-0.19
60003;BMP280;46322;52.018;8.702;2022-11-20T04:17:23;99811.59;;;-0.12
60003;BMP280;46322;52.018;8.702;2022-11-20T04:22:23;99804.75;;;-0.45
60003;BMP280;46322;52.018;8.702;2022-11-20T04:27:23;99800.47;;;-0.56
60003;BMP280;46322;52.018;8.702;2022-11-20T04:32:23;99804.19;;;-0.74
60003;BMP280;46322;52.018;8.702;2022-11-20T04:37:23;99794.34;;;-0.45
60003;BMP280;46322;52.018;8.702;2022-11-20T04:42:23;99798.75;;;-0.45
60003;BMP280;46322;52.018;8.702;2022-11-20T04:47:24;99792.13;;;-0.58
60003;BMP280;46322;52.018;8.702;2022-11-20T04:52:24;99786.88;;;-1.51
60003;BMP280;46322;52.018;8.702;2022-11-20T04:57:24;99785.19;;;-0.47
60003;BMP280;46322;52.018;8.702;2022-11-20T05:02:24;99790.22;;;-1.12
60003;BMP280;46322;52.018;8.702;2022-11-20T05:07:25;99790.31;;;-1.28
60003;BMP280;46322;52.018;8.702;2022-11-20T05:12:25;99787.16;;;-1.30
60003;BMP280;46322;52.018;8.702;2022-11-20T05:17:25;99786.13;;;-1.85
60003;BMP280;46322;52.018;8.702;2022-11-20T05:22:25;99789.56;;;-1.63
60003;BMP280;46322;52.018;8.702;2022-11-20T05:27:25;99797.50;;;-1.14
60003;BMP280;46322;52.018;8.702;2022-11-20T05:32:25;99797.91;;;-0.78
60003;BMP280;46322;52.018;8.702;2022-11-20T05:37:25;99793.66;;;-0.62
60003;BMP280;46322;52.018;8.702;2022-11-20T05:42:26;99785.59;;;-0.34
60003;BMP280;46322;52.018;8.702;2022-11-20T05:47:26;99781.34;;;-0.94
60003;BMP280;46322;52.018;8.702;2022-11-20T05:52:30;99776.91;;;-1.37
60003;BMP280;46322;52.018;8.702;2022-11-20T05:57:30;99762.44;;;-1.33
60003;BMP280;46322;52.018;8.702;2022-11-20T06:02:30;99771.94;;;-1.22
60003;BMP280;46322;52.018;8.702;2022-11-20T06:07:34;99767.25;;;-1.20
60003;BMP280;46322;52.018;8.702;2022-11-20T06:12:34;99766.25;;;-1.57
60003;BMP280;46322;52.018;8.702;2022-11-20T06:17:34;99779.44;;;-1.42
60003;BMP280;46322;52.018;8.702;2022-11-20T06:22:34;99778.09;;;-1.83
60003;BMP280;46322;52.018;8.702;2022-11-20T06:27:34;99772.78;;;-1.55
60003;BMP280;46322;52.018;8.702;2022-11-20T06:32:34;99774.72;;;-1.28
60003;BMP280;46322;52.018;8.702;2022-11-20T06:37:34;99768.06;;;-1.58
60003;BMP280;46322;52.018;8.702;2022-11-20T06:42:35;99763.34;;;-1.78
60003;BMP280;46322;52.018;8.702;2022-11-20T06:47:35;99761.63;;;-2.23
60003;BMP280;46322;52.018;8.702;2022-11-20T06:52:35;99758.75;;;-1.54
60003;BMP280;46322;52.018;8.702;2022-11-20T06:57:35;99759.41;;;-1.64
60003;BMP280;46322;52.018;8.702;2022-11-20T07:02:35;99769.78;;;-0.54
60003;BMP280;46322;52.018;8.702;2022-11-20T07:07:35;99774.53;;;-1.22
60003;BMP280;46322;52.018;8.702;2022-11-20T07:12:35;99778.91;;;-2.12
60003;BMP280;46322;52.018;8.702;2022-11-20T07:17:36;99778.78;;;-0.89
60003;BMP280;46322;52.018;8.702;2022-11-20T07:22:36;99783.84;;;-0.28
60003;BMP280;46322;52.018;8.702;2022-11-20T07:27:36;99778.75;;;-0.40
60003;BMP280;46322;52.018;8.702;2022-11-20T07:32:36;99796.88;;;-0.77
60003;BMP280;46322;52.018;8.702;2022-11-20T07:37:36;99798.22;;;-0.74
60003;BMP280;46322;52.018;8.702;2022-11-20T07:42:36;99805.63;;;-0.61
60003;BMP280;46322;52.018;8.702;2022-11-20T07:47:36;99801.69;;;0.80
60003;BMP280;46322;52.018;8.702;2022-11-20T07:52:37;99803.94;;;1.29
60003;BMP280;46322;52.018;8.702;2022-11-20T07:57:37;99797.19;;;-0.95
60003;BMP280;46322;52.018;8.702;2022-11-20T08:02:38;99794.69;;;-0.63
60003;BMP280;46322;52.018;8.702;2022-11-20T08:07:38;99784.13;;;-0.24
60003;BMP280;46322;52.018;8.702;2022-11-20T08:12:49;99794.84;;;1.47
60003;BMP280;46322;52.018;8.702;2022-11-20T08:17:49;99781.53;;;1.63
60003;BMP280;46322;52.018;8.702;2022-11-20T08:22:49;99770.16;;;0.24
60003;BMP280;46322;52.018;8.702;2022-11-20T08:27:49;99766.38;;;1.25
60003;BMP280;46322;52.018;8.702;2022-11-20T08:32:49;99766.78;;;0.91
60003;BMP280;46322;52.018;8.702;2022-11-20T08:37:50;99759.00;;;1.01
60003;BMP280;46322;52.018;8.702;2022-11-20T08:42:50;99769.53;;;1.68
60003;BMP280;46322;52.018;8.702;2022-11-20T08:47:50;99777.56;;;3.31
60003;BMP280;46322;52.018;8.702;2022-11-20T08:52:50;99775.81;;;3.84
60003;BMP280;46322;52.018;8.702;2022-11-20T08:57:50;99785.47;;;2.82
60003;BMP280;46322;52.018;8.702;2022-11-20T09:02:51;99788.19;;;3.45
60003;BMP280;46322;52.018;8.702;2022-11-20T09:07:51;99792.16;;;2.33
60003;BMP280;46322;52.018;8.702;2022-11-20T09:12:52;99786.75;;;3.63
60003;BMP280;46322;52.018;8.702;2022-11-20T09:18:02;99787.97;;;4.28
60003;BMP280;46322;52.018;8.702;2022-11-20T09:23:03;99801.25;;;3.84
60003;BMP280;46322;52.018;8.702;2022-11-20T09:28:03;99787.47;;;5.58
60003;BMP280;46322;52.018;8.702;2022-11-20T09:33:04;99780.25;;;2.77
60003;BMP280;46322;52.018;8.702;2022-11-20T09:38:07;99783.50;;;4.05
60003;BMP280;46322;52.018;8.702;2022-11-20T09:43:21;99778.63;;;2.86
60003;BMP280;46322;52.018;8.702;2022-11-20T09:59:19;99771.63;;;4.55
60003;BMP280;46322;52.018;8.702;2022-11-20T10:04:23;99771.75;;;5.20
60003;BMP280;46322;52.018;8.702;2022-11-20T10:09:28;99763.50;;;4.76
60003;BMP280;46322;52.018;8.702;2022-11-20T10:14:53;99760.91;;;3.80
60003;BMP280;46322;52.018;8.702;2022-11-20T10:25:15;99718.13;;;3.26
60003;BMP280;46322;52.018;8.702;2022-11-20T10:30:18;99702.28;;;3.47
60003;BMP280;46322;52.018;8.702;2022-11-20T10:35:23;99706.84;;;3.60
60003;BMP280;46322;52.018;8.702;2022-11-20T10:40:35;99716.53;;;4.13
60003;BMP280;46322;52.018;8.702;2022-11-20T10:45:58;99727.03;;;6.35
60003;BMP280;46322;52.018;8.702;2022-11-20T10:56:17;99700.31;;;5.78
60003;BMP280;46322;52.018;8.702;2022-11-20T11:01:20;99684.50;;;4.91
60003;BMP280;46322;52.018;8.702;2022-11-20T11:06:34;99678.38;;;6.10
60003;BMP280;46322;52.018;8.702;2022-11-20T11:11:37;99697.97;;;7.30
60003;BMP280;46322;52.018;8.702;2022-11-20T11:16:56;99687.47;;;6.27
60003;BMP280;46322;52.018;8.702;2022-11-20T11:21:56;99683.19;;;5.81
60003;BMP280;46322;52.018;8.702;2022-11-20T11:26:58;99681.66;;;6.97
60003;BMP280;46322;52.018;8.702;2022-11-20T11:37:05;99677.53;;;8.01
60003;BMP280;46322;52.018;8.702;2022-11-20T11:42:16;99678.06;;;10.11
60003;BMP280;46322;52.018;8.702;2022-11-20T11:52:23;99685.88;;;10.62
60003;BMP280;46322;52.018;8.702;2022-11-20T12:02:55;99672.47;;;9.92
60003;BMP280;46322;52.018;8.702;2022-11-20T12:18:29;99651.97;;;9.59
60003;BMP280;46322;52.018;8.702;2022-11-20T12:43:55;99625.09;;;9.78
60003;BMP280;46322;52.018;8.702;2022-11-20T13:04:51;99605.63;;;8.94
60003;BMP280;46322;52.018;8.702;2022-11-20T13:09:28;99616.56;;;10.84
60003;BMP280;46322;52.018;8.702;2022-11-20T13:14:37;99608.94;;;11.71
60003;BMP280;46322;52.018;8.702;2022-11-20T13:19:40;99605.94;;;10.14
60003;BMP280;46322;52.018;8.702;2022-11-20T13:24:40;99590.47;;;9.42
60003;BMP280;46322;52.018;8.702;2022-11-20T13:35:26;99569.38;;;9.03
60003;BMP280;46322;52.018;8.702;2022-11-20T13:40:27;99575.03;;;9.44
60003;BMP280;46322;52.018;8.702;2022-11-20T13:45:28;99563.09;;;10.57
60003;BMP280;46322;52.018;8.702;2022-11-20T14:00:32;99535.47;;;10.83
60003;BMP280;46322;52.018;8.702;2022-11-20T14:05:36;99529.31;;;8.55
60003;BMP280;46322;52.018;8.702;2022-11-20T14:10:37;99512.91;;;7.02
60003;BMP280;46322;52.018;8.702;2022-11-20T14:15:37;99518.41;;;7.83
60003;BMP280;46322;52.018;8.702;2022-11-20T14:20:37;99520.19;;;8.82
60003;BMP280;46322;52.018;8.702;2022-11-20T14:25:41;99497.81;;;7.77
60003;BMP280;46322;52.018;8.702;2022-11-20T14:30:42;99501.16;;;8.21
60003;BMP280;46322;52.018;8.702;2022-11-20T14:35:50;99474.09;;;6.77
60003;BMP280;46322;52.018;8.702;2022-11-20T14:40:50;99473.44;;;7.71
60003;BMP280;46322;52.018;8.702;2022-11-20T14:45:58;99474.59;;;8.17
60003;BMP280;46322;52.018;8.702;2022-11-20T14:50:58;99470.06;;;7.45
60003;BMP280;46322;52.018;8.702;2022-11-20T14:55:59;99464.81;;;6.88
60003;BMP280;46322;52.018;8.702;2022-11-20T15:01:01;99457.00;;;7.31
60003;BMP280;46322;52.018;8.702;2022-11-20T15:06:01;99448.31;;;7.31
60003;BMP280;46322;52.018;8.702;2022-11-20T15:11:02;99458.81;;;6.96
60003;BMP280;46322;52.018;8.702;2022-11-20T15:16:03;99446.59;;;7.09
60003;BMP280;46322;52.018;8.702;2022-11-20T15:21:06;99430.63;;;7.14
60003;BMP280;46322;52.018;8.702;2022-11-20T15:26:10;99428.44;;;7.76
60003;BMP280;46322;52.018;8.702;2022-11-20T15:31:11;99429.50;;;7.93
60003;BMP280;46322;52.018;8.702;2022-11-20T15:36:11;99425.75;;;8.40
60003;BMP280;46322;52.018;8.702;2022-11-20T15:41:12;99419.72;;;7.84
60003;BMP280;46322;52.018;8.702;2022-11-20T15:46:15;99412.44;;;7.73
60003;BMP280;46322;52.018;8.702;2022-11-20T15:56:19;99414.03;;;7.74
60003;BMP280;46322;52.018;8.702;2022-11-20T16:01:21;99412.34;;;7.35
60003;BMP280;46322;52.018;8.702;2022-11-20T16:06:21;99416.69;;;7.39
60003;BMP280;46322;52.018;8.702;2022-11-20T16:11:21;99410.66;;;7.21
60003;BMP280;46322;52.018;8.702;2022-11-20T16:16:25;99404.44;;;7.52
60003;BMP280;46322;52.018;8.702;2022-11-20T16:21:27;99396.22;;;7.27
60003;BMP280;46322;52.018;8.702;2022-11-20T16:26:27;99369.69;;;8.05
60003;BMP280;46322;52.018;8.702;2022-11-20T16:31:28;99368.47;;;7.39
60003;BMP280;46322;52.018;8.702;2022-11-20T16:36:28;99367.06;;;7.50
60003;BMP280;46322;52.018;8.702;2022-11-20T16:41:30;99357.97;;;7.21
60003;BMP280;46322;52.018;8.702;2022-11-20T16:46:30;99360.22;;;6.71
60003;BMP280;46322;52.018;8.702;2022-11-20T16:51:33;99354.56;;;7.21
60003;BMP280;46322;52.018;8.702;2022-11-20T16:56:33;99344.75;;;7.13
60003;BMP280;46322;52.018;8.702;2022-11-20T17:01:33;99327.03;;;6.61
60003;BMP280;46322;52.018;8.702;2022-11-20T17:06:37;99329.72;;;6.70
60003;BMP280;46322;52.018;8.702;2022-11-20T17:11:38;99322.91;;;6.95
60003;BMP280;46322;52.018;8.702;2022-11-20T17:16:38;99308.63;;;6.79
60003;BMP280;46322;52.018;8.702;2022-11-20T17:21:39;99303.56;;;6.82
60003;BMP280;46322;52.018;8.702;2022-11-20T17:26:39;99299.81;;;7.01
60003;BMP280;46322;52.018;8.702;2022-11-20T17:31:40;99293.31;;;5.98
60003;BMP280;46322;52.018;8.702;2022-11-20T17:36:41;99295.50;;;6.70
60003;BMP280;46322;52.018;8.702;2022-11-20T17:41:41;99286.19;;;6.47
60003;BMP280;46322;52.018;8.702;2022-11-20T17:46:41;99284.78;;;7.01
60003;BMP280;46322;52.018;8.702;2022-11-20T17:51:42;99279.84;;;6.82
60003;BMP280;46322;52.018;8.702;2022-11-20T17:56:42;99265.75;;;6.69
60003;BMP280;46322;52.018;8.702;2022-11-20T18:01:42;99262.16;;;6.65
60003;BMP280;46322;52.018;8.702;2022-11-20T18:06:42;99257.69;;;6.92
60003;BMP280;46322;52.018;8.702;2022-11-20T18:11:42;99257.97;;;6.90
60003;BMP280;46322;52.018;8.702;2022-11-20T18:16:44;99243.72;;;6.48
60003;BMP280;46322;52.018;8.702;2022-11-20T18:21:44;99238.00;;;6.55
60003;BMP280;46322;52.018;8.702;2022-11-20T18:26:44;99231.84;;;5.85
60003;BMP280;46322;52.018;8.702;2022-11-20T18:31:45;99246.34;;;7.09
60003;BMP280;46322;52.018;8.702;2022-11-20T18:36:45;99237.84;;;6.94
60003;BMP280;46322;52.018;8.702;2022-11-20T18:41:45;99242.34;;;6.42
60003;BMP280;46322;52.018;8.702;2022-11-20T18:46:45;99241.53;;;6.16
60003;BMP280;46322;52.018;8.702;2022-11-20T18:51:45;99231.97;;;6.54
60003;BMP280;46322;52.018;8.702;2022-11-20T18:56:45;99215.19;;;5.98
60003;BMP280;46322;52.018;8.702;2022-11-20T19:01:46;99215.38;;;6.36
60003;BMP280;46322;52.018;8.702;2022-11-20T19:06:46;99208.56;;;6.27
60003;BMP280;46322;52.018;8.702;2022-11-20T19:11:46;99194.78;;;6.13
60003;BMP280;46322;52.018;8.702;2022-11-20T19:16:46;99185.81;;;6.48
60003;BMP280;46322;52.018;8.702;2022-11-20T19:21:47;99177.31;;;6.51
60003;BMP280;46322;52.018;8.702;2022-11-20T19:26:47;99168.81;;;6.46
60003;BMP280;46322;52.018;8.702;2022-11-20T19:31:47;99159.28;;;5.75
60003;BMP280;46322;52.018;8.702;2022-11-20T19:36:47;99154.34;;;5.82
60003;BMP280;46322;52.018;8.702;2022-11-20T19:41:47;99148.31;;;6.77
60003;BMP280;46322;52.018;8.702;2022-11-20T19:46:48;99134.59;;;6.11
60003;BMP280;46322;52.018;8.702;2022-11-20T19:51:48;99120.97;;;6.26
60003;BMP280;46322;52.018;8.702;2022-11-20T19:56:48;99113.38;;;6.51
60003;BMP280;46322;52.018;8.702;2022-11-20T20:01:48;99108.41;;;6.58
60003;BMP280;46322;52.018;8.702;2022-11-20T20:06:48;99107.19;;;6.03
60003;BMP280;46322;52.018;8.702;2022-11-20T20:11:49;99103.56;;;6.60
60003;BMP280;46322;52.018;8.702;2022-11-20T20:16:49;99096.22;;;6.10
60003;BMP280;46322;52.018;8.702;2022-11-20T20:21:49;99086.28;;;5.81
60003;BMP280;46322;52.018;8.702;2022-11-20T20:26:49;99077.78;;;6.45
60003;BMP280;46322;52.018;8.702;2022-11-20T20:31:49;99062.16;;;5.96
60003;BMP280;46322;52.018;8.702;2022-11-20T20:36:49;99051.47;;;6.45
60003;BMP280;46322;52.018;8.702;2022-11-20T20:41:50;99054.59;;;6.76
60003;BMP280;46322;52.018;8.702;2022-11-20T20:46:50;99052.25;;;6.19
60003;BMP280;46322;52.018;8.702;2022-11-20T20:51:51;99038.66;;;6.17
60003;BMP280;46322;52.018;8.702;2022-11-20T20:56:51;99034.16;;;6.09
60003;BMP280;46322;52.018;8.702;2022-11-20T21:01:51;99027.69;;;5.89
60003;BMP280;46322;52.018;8.702;2022-11-20T21:06:51;99023.03;;;5.95
60003;BMP280;46322;52.018;8.702;2022-11-20T21:11:51;99015.44;;;6.10
60003;BMP280;46322;52.018;8.702;2022-11-20T21:16:52;99015.47;;;5.59
60003;BMP280;46322;52.018;8.702;2022-11-20T21:21:52;98995.34;;;5.89
60003;BMP280;46322;52.018;8.702;2022-11-20T21:26:52;98991.19;;;5.88
60003;BMP280;46322;52.018;8.702;2022-11-20T21:31:52;98986.38;;;5.72
60003;BMP280;46322;52.018;8.702;2022-11-20T21:36:53;98979.44;;;6.49
60003;BMP280;46322;52.018;8.702;2022-11-20T21:41:53;98969.03;;;6.06
60003;BMP280;46322;52.018;8.702;2022-11-20T21:46:53;98969.94;;;6.27
60003;BMP280;46322;52.018;8.702;2022-11-20T21:51:53;98960.09;;;5.72
60003;BMP280;46322;52.018;8.702;2022-11-20T21:56:53;98958.69;;;5.83
60003;BMP280;46322;52.018;8.702;2022-11-20T22:01:53;98969.78;;;6.71
60003;BMP280;46322;52.018;8.702;2022-11-20T22:06:53;98955.75;;;5.50
60003;BMP280;46322;52.018;8.702;2022-11-20T22:11:54;98951.38;;;6.06
60003;BMP280;46322;52.018;8.702;2022-11-20T22:16:54;98950.81;;;5.40
60003;BMP280;46322;52.018;8.702;2022-11-20T22:21:54;98960.84;;;5.47
60003;BMP280;46322;52.018;8.702;2022-11-20T22:26:54;98950.47;;;5.94
60003;BMP280;46322;52.018;8.702;2022-11-20T22:31:54;98953.91;;;5.77
60003;BMP280;46322;52.018;8.702;2022-11-20T22:36:54;98956.94;;;6.14
60003;BMP280;46322;52.018;8.702;2022-11-20T22:41:54;98962.09;;;6.57
60003;BMP280;46322;52.018;8.702;2022-11-20T22:46:55;98972.81;;;6.34
60003;BMP280;46322;52.018;8.702;2022-11-20T22:51:55;98977.97;;;6.22
60003;BMP280;46322;52.018;8.702;2022-11-20T22:56:55;98992.16;;;6.85
60003;BMP280;46322;52.018;8.702;2022-11-20T23:01:55;98990.84;;;6.62
60003;BMP280;46322;52.018;8.702;2022-11-20T23:06:55;98987.91;;;6.63
60003;BMP280;46322;52.018;8.702;2022-11-20T23:11:55;98997.25;;;6.44
60003;BMP280;46322;52.018;8.702;2022-11-20T23:16:55;99000.94;;;6.98
60003;BMP280;46322;52.018;8.702;2022-11-20T23:21:56;99000.25;;;7.31
60003;BMP280;46322;52.018;8.702;2022-11-20T23:26:56;98992.84;;;6.18
60003;BMP280;46322;52.018;8.702;2022-11-20T23:31:56;99007.66;;;6.40
60003;BMP280;46322;52.018;8.702;2022-11-20T23:36:56;99005.34;;;6.77
60003;BMP280;46322;52.018;8.702;2022-11-20T23:41:56;99006.28;;;6.25
60003;BMP280;46322;52.018;8.702;2022-11-20T23:46:56;99013.81;;;6.44
60003;BMP280;46322;52.018;8.702;2022-11-20T23:51:56;99011.19;;;6.44
60003;BMP280;46322;52.018;8.702;2022-11-20T23:56:57;99007.88;;;6.00
